sensor_id;sensor_type;location;lat;lon;timestamp;temperature;humidity
15328;DHT22;7764;51.430;6.840;2023-02-18T00:00:16;12.10;99.90
15328;DHT22;7764;51.430;6.840;2023-02-18T00:02:43;12.10;99.90
15328;DHT22;7764;51.430;6.840;2023-02-18T00:05:10;12.10;99.90
15328;DHT22;7764;51.430;6.840;2023-02-18T00:07:38;12.10;99.90
15328;DHT22;7764;51.430;6.840;2023-02-18T00:10:08;12.00;99.90
15328;DHT22;7764;51.430;6.840;2023-02-18T00:12:38;12.00;99.90
15328;DHT22;7764;51.430;6.840;2023-02-18T00:15:05;12.00;99.90
15328;DHT22;7764;51.430;6.840;2023-02-18T00:17:32;12.00;99.90
15328;DHT22;7764;51.430;6.840;2023-02-18T00:19:59;12.00;99.90
15328;DHT22;7764;51.430;6.840;2023-02-18T00:22:26;12.00;99.90
15328;DHT22;7764;51.430;6.840;2023-02-18T00:24:53;12.10;99.90
15328;DHT22;7764;51.430;6.840;2023-02-18T00:27:19;12.10;99.90
15328;DHT22;7764;51.430;6.840;2023-02-18T00:29:48;12.00;99.90
15328;DHT22;7764;51.430;6.840;2023-02-18T00:32:14;12.00;99.90
15328;DHT22;7764;51.430;6.840;2023-02-18T00:34:41;12.00;99.90
15328;DHT22;7764;51.430;6.840;2023-02-18T00:37:08;12.00;99.90
15328;DHT22;7764;51.430;6.840;2023-02-18T00:39:35;12.10;99.90
15328;DHT22;7764;51.430;6.840;2023-02-18T00:42:02;12.00;99.90
15328;DHT22;7764;51.430;6.840;2023-02-18T00:44:29;12.00;99.90
15328;DHT22;7764;51.430;6.840;2023-02-18T00:46:57;12.00;99.90
15328;DHT22;7764;51.430;6.840;2023-02-18T00:49:23;12.00;99.90
15328;DHT22;7764;51.430;6.840;2023-02-18T00:51:50;12.00;99.90
15328;DHT22;7764;51.430;6.840;2023-02-18T00:54:17;12.00;99.90
15328;DHT22;7764;51.430;6.840;2023-02-18T00:56:44;12.00;99.90
15328;DHT22;7764;51.430;6.840;2023-02-18T00:59:11;12.00;99.90
15328;DHT22;7764;51.430;6.840;2023-02-18T01:01:38;12.00;99.90
15328;DHT22;7764;51.430;6.840;2023-02-18T01:04:06;12.00;99.90
15328;DHT22;7764;51.430;6.840;2023-02-18T01:06:33;12.00;99.90
15328;DHT22;7764;51.430;6.840;2023-02-18T01:09:00;12.00;99.90
15328;DHT22;7764;51.430;6.840;2023-02-18T01:11:26;12.00;99.90
15328;DHT22;7764;51.430;6.840;2023-02-18T01:13:53;11.90;99.90
15328;DHT22;7764;51.430;6.840;2023-02-18T01:16:20;11.90;99.90
15328;DHT22;7764;51.430;6.840;2023-02-18T01:18:47;11.90;99.90
15328;DHT22;7764;51.430;6.840;2023-02-18T01:21:16;11.90;99.90
15328;DHT22;7764;51.430;6.840;2023-02-18T01:23:42;12.00;99.90
15328;DHT22;7764;51.430;6.840;2023-02-18T01:26:10;11.90;99.90
15328;DHT22;7764;51.430;6.840;2023-02-18T01:28:37;12.00;99.90
15328;DHT22;7764;51.430;6.840;2023-02-18T01:31:06;12.00;99.90
15328;DHT22;7764;51.430;6.840;2023-02-18T01:33:33;12.00;99.90
15328;DHT22;7764;51.430;6.840;2023-02-18T01:36:00;12.00;99.90
15328;DHT22;7764;51.430;6.840;2023-02-18T01:38:28;11.90;99.90
15328;DHT22;7764;51.430;6.840;2023-02-18T01:40:55;11.90;99.90
15328;DHT22;7764;51.430;6.840;2023-02-18T01:43:23;11.90;99.90
15328;DHT22;7764;51.430;6.840;2023-02-18T01:45:59;11.90;99.90
15328;DHT22;7764;51.430;6.840;2023-02-18T01:48:29;11.90;99.90
15328;DHT22;7764;51.430;6.840;2023-02-18T01:51:00;11.90;99.90
15328;DHT22;7764;51.430;6.840;2023-02-18T01:53:34;11.90;99.90
15328;DHT22;7764;51.430;6.840;2023-02-18T01:56:03;11.90;99.90
15328;DHT22;7764;51.430;6.840;2023-02-18T01:58:32;11.90;99.90
15328;DHT22;7764;51.430;6.840;2023-02-18T02:00:59;11.90;99.90
15328;DHT22;7764;51.430;6.840;2023-02-18T02:03:26;11.90;99.90
15328;DHT22;7764;51.430;6.840;2023-02-18T02:05:53;11.90;99.90
15328;DHT22;7764;51.430;6.840;2023-02-18T02:08:19;11.90;99.90
15328;DHT22;7764;51.430;6.840;2023-02-18T02:11:01;11.90;99.90
15328;DHT22;7764;51.430;6.840;2023-02-18T02:13:41;11.90;99.90
15328;DHT22;7764;51.430;6.840;2023-02-18T02:16:19;11.90;99.90
15328;DHT22;7764;51.430;6.840;2023-02-18T02:18:57;11.90;99.90
15328;DHT22;7764;51.430;6.840;2023-02-18T02:21:54;11.90;99.90
15328;DHT22;7764;51.430;6.840;2023-02-18T02:24:53;11.90;99.90
15328;DHT22;7764;51.430;6.840;2023-02-18T02:27:26;11.90;99.90
15328;DHT22;7764;51.430;6.840;2023-02-18T02:33:23;11.90;99.90
15328;DHT22;7764;51.430;6.840;2023-02-18T02:35:59;11.90;99.90
15328;DHT22;7764;51.430;6.840;2023-02-18T02:38:31;11.80;99.90
15328;DHT22;7764;51.430;6.840;2023-02-18T02:41:10;11.90;99.90
15328;DHT22;7764;51.430;6.840;2023-02-18T02:43:47;11.90;99.90
15328;DHT22;7764;51.430;6.840;2023-02-18T02:46:19;11.90;99.90
15328;DHT22;7764;51.430;6.840;2023-02-18T02:48:53;11.90;99.90
15328;DHT22;7764;51.430;6.840;2023-02-18T02:51:27;11.90;99.90
15328;DHT22;7764;51.430;6.840;2023-02-18T02:54:09;11.80;99.90
15328;DHT22;7764;51.430;6.840;2023-02-18T02:56:37;11.80;99.90
15328;DHT22;7764;51.430;6.840;2023-02-18T02:59:08;11.80;99.90
15328;DHT22;7764;51.430;6.840;2023-02-18T03:01:40;11.90;99.90
15328;DHT22;7764;51.430;6.840;2023-02-18T03:04:26;11.80;99.90
15328;DHT22;7764;51.430;6.840;2023-02-18T03:07:10;11.80;99.90
15328;DHT22;7764;51.430;6.840;2023-02-18T03:09:50;11.80;99.90
15328;DHT22;7764;51.430;6.840;2023-02-18T03:12:26;11.80;99.90
15328;DHT22;7764;51.430;6.840;2023-02-18T03:15:00;11.80;99.90
15328;DHT22;7764;51.430;6.840;2023-02-18T03:17:33;11.70;99.90
15328;DHT22;7764;51.430;6.840;2023-02-18T03:20:07;11.80;99.90
15328;DHT22;7764;51.430;6.840;2023-02-18T03:22:43;11.70;99.90
15328;DHT22;7764;51.430;6.840;2023-02-18T03:25:12;11.70;99.90
15328;DHT22;7764;51.430;6.840;2023-02-18T03:27:44;11.70;99.90
15328;DHT22;7764;51.430;6.840;2023-02-18T03:30:15;11.70;99.90
15328;DHT22;7764;51.430;6.840;2023-02-18T03:32:43;11.70;99.90
15328;DHT22;7764;51.430;6.840;2023-02-18T03:35:13;11.70;99.90
15328;DHT22;7764;51.430;6.840;2023-02-18T03:37:46;11.60;99.90
15328;DHT22;7764;51.430;6.840;2023-02-18T03:40:15;11.70;99.90
15328;DHT22;7764;51.430;6.840;2023-02-18T03:42:42;11.70;99.90
15328;DHT22;7764;51.430;6.840;2023-02-18T03:45:09;11.70;99.90
15328;DHT22;7764;51.430;6.840;2023-02-18T03:47:37;11.70;99.90
15328;DHT22;7764;51.430;6.840;2023-02-18T03:50:04;11.70;99.90
15328;DHT22;7764;51.430;6.840;2023-02-18T03:52:31;11.70;99.90
15328;DHT22;7764;51.430;6.840;2023-02-18T03:55:02;11.70;99.90
15328;DHT22;7764;51.430;6.840;2023-02-18T03:57:29;11.70;99.90
15328;DHT22;7764;51.430;6.840;2023-02-18T03:59:56;11.70;99.90
15328;DHT22;7764;51.430;6.840;2023-02-18T04:02:23;11.70;99.90
15328;DHT22;7764;51.430;6.840;2023-02-18T04:04:50;11.70;99.90
15328;DHT22;7764;51.430;6.840;2023-02-18T04:07:16;11.70;99.90
15328;DHT22;7764;51.430;6.840;2023-02-18T04:09:43;11.70;99.90
15328;DHT22;7764;51.430;6.840;2023-02-18T04:12:12;11.70;99.90
15328;DHT22;7764;51.430;6.840;2023-02-18T04:14:38;11.70;99.90
15328;DHT22;7764;51.430;6.840;2023-02-18T04:17:05;11.70;99.90
15328;DHT22;7764;51.430;6.840;2023-02-18T04:19:32;11.70;99.90
15328;DHT22;7764;51.430;6.840;2023-02-18T04:21:59;11.70;99.90
15328;DHT22;7764;51.430;6.840;2023-02-18T04:24:26;11.70;99.90
15328;DHT22;7764;51.430;6.840;2023-02-18T04:26:53;11.70;99.90
15328;DHT22;7764;51.430;6.840;2023-02-18T04:29:21;11.70;99.90
15328;DHT22;7764;51.430;6.840;2023-02-18T04:31:48;11.70;99.90
15328;DHT22;7764;51.430;6.840;2023-02-18T04:34:15;11.70;99.90
15328;DHT22;7764;51.430;6.840;2023-02-18T04:36:42;11.70;99.90
15328;DHT22;7764;51.430;6.840;2023-02-18T04:39:08;11.60;99.90
15328;DHT22;7764;51.430;6.840;2023-02-18T04:41:35;11.70;99.90
15328;DHT22;7764;51.430;6.840;2023-02-18T04:44:02;11.70;99.90
15328;DHT22;7764;51.430;6.840;2023-02-18T04:46:31;11.60;99.90
15328;DHT22;7764;51.430;6.840;2023-02-18T04:48:57;11.60;99.90
15328;DHT22;7764;51.430;6.840;2023-02-18T04:51:24;11.60;99.90
15328;DHT22;7764;51.430;6.840;2023-02-18T04:53:51;11.50;99.90
15328;DHT22;7764;51.430;6.840;2023-02-18T04:56:18;11.50;99.90
15328;DHT22;7764;51.430;6.840;2023-02-18T04:58:45;11.40;99.90
15328;DHT22;7764;51.430;6.840;2023-02-18T05:01:12;11.50;99.90
15328;DHT22;7764;51.430;6.840;2023-02-18T05:03:40;11.40;99.90
15328;DHT22;7764;51.430;6.840;2023-02-18T05:06:07;11.40;99.90
15328;DHT22;7764;51.430;6.840;2023-02-18T05:08:34;11.40;99.90
15328;DHT22;7764;51.430;6.840;2023-02-18T05:11:05;11.40;99.90
15328;DHT22;7764;51.430;6.840;2023-02-18T05:13:32;11.40;99.90
15328;DHT22;7764;51.430;6.840;2023-02-18T05:15:59;11.40;99.90
15328;DHT22;7764;51.430;6.840;2023-02-18T05:18:26;11.40;99.90
15328;DHT22;7764;51.430;6.840;2023-02-18T05:20:55;11.40;99.90
15328;DHT22;7764;51.430;6.840;2023-02-18T05:23:22;11.40;99.90
15328;DHT22;7764;51.430;6.840;2023-02-18T05:25:50;11.30;99.90
15328;DHT22;7764;51.430;6.840;2023-02-18T05:28:17;11.30;99.90
15328;DHT22;7764;51.430;6.840;2023-02-18T05:30:44;11.30;99.90
15328;DHT22;7764;51.430;6.840;2023-02-18T05:33:11;11.40;99.90
15328;DHT22;7764;51.430;6.840;2023-02-18T05:35:38;11.40;99.90
15328;DHT22;7764;51.430;6.840;2023-02-18T05:38:07;11.30;99.90
15328;DHT22;7764;51.430;6.840;2023-02-18T05:40:34;11.30;99.90
15328;DHT22;7764;51.430;6.840;2023-02-18T05:43:01;11.30;99.90
15328;DHT22;7764;51.430;6.840;2023-02-18T05:45:28;11.30;99.90
15328;DHT22;7764;51.430;6.840;2023-02-18T05:47:55;11.30;99.90
15328;DHT22;7764;51.430;6.840;2023-02-18T05:50:22;11.30;99.90
15328;DHT22;7764;51.430;6.840;2023-02-18T05:52:49;11.30;99.90
15328;DHT22;7764;51.430;6.840;2023-02-18T05:55:18;11.30;99.90
15328;DHT22;7764;51.430;6.840;2023-02-18T05:57:45;11.30;99.90
15328;DHT22;7764;51.430;6.840;2023-02-18T06:00:12;11.30;99.90
15328;DHT22;7764;51.430;6.840;2023-02-18T06:02:40;11.30;99.90
15328;DHT22;7764;51.430;6.840;2023-02-18T06:05:07;11.30;99.90
15328;DHT22;7764;51.430;6.840;2023-02-18T06:07:34;11.30;99.90
15328;DHT22;7764;51.430;6.840;2023-02-18T06:10:02;11.30;99.90
15328;DHT22;7764;51.430;6.840;2023-02-18T06:12:30;11.30;99.90
15328;DHT22;7764;51.430;6.840;2023-02-18T06:14:57;11.30;99.90
15328;DHT22;7764;51.430;6.840;2023-02-18T06:17:24;11.30;99.90
15328;DHT22;7764;51.430;6.840;2023-02-18T06:19:51;11.30;99.90
15328;DHT22;7764;51.430;6.840;2023-02-18T06:22:17;11.30;99.90
15328;DHT22;7764;51.430;6.840;2023-02-18T06:24:44;11.30;99.90
15328;DHT22;7764;51.430;6.840;2023-02-18T06:27:11;11.30;99.90
15328;DHT22;7764;51.430;6.840;2023-02-18T06:29:39;11.30;99.90
15328;DHT22;7764;51.430;6.840;2023-02-18T06:32:06;11.30;99.90
15328;DHT22;7764;51.430;6.840;2023-02-18T06:34:33;11.30;99.90
15328;DHT22;7764;51.430;6.840;2023-02-18T06:37:00;11.30;99.90
15328;DHT22;7764;51.430;6.840;2023-02-18T06:39:29;11.30;99.90
15328;DHT22;7764;51.430;6.840;2023-02-18T06:41:56;11.30;99.90
15328;DHT22;7764;51.430;6.840;2023-02-18T06:44:22;11.20;99.90
15328;DHT22;7764;51.430;6.840;2023-02-18T06:46:51;11.20;99.90
15328;DHT22;7764;51.430;6.840;2023-02-18T06:49:17;11.20;99.90
15328;DHT22;7764;51.430;6.840;2023-02-18T06:51:45;11.20;99.90
15328;DHT22;7764;51.430;6.840;2023-02-18T06:54:12;11.20;99.90
15328;DHT22;7764;51.430;6.840;2023-02-18T06:56:38;11.20;99.90
15328;DHT22;7764;51.430;6.840;2023-02-18T06:59:05;11.20;99.90
15328;DHT22;7764;51.430;6.840;2023-02-18T07:01:32;11.20;99.90
15328;DHT22;7764;51.430;6.840;2023-02-18T07:04:01;11.20;99.90
15328;DHT22;7764;51.430;6.840;2023-02-18T07:06:27;11.10;99.90
15328;DHT22;7764;51.430;6.840;2023-02-18T07:08:54;11.20;99.90
15328;DHT22;7764;51.430;6.840;2023-02-18T07:11:21;11.20;99.90
15328;DHT22;7764;51.430;6.840;2023-02-18T07:13:48;11.20;99.90
15328;DHT22;7764;51.430;6.840;2023-02-18T07:16:15;11.20;99.90
15328;DHT22;7764;51.430;6.840;2023-02-18T07:18:42;11.20;99.90
15328;DHT22;7764;51.430;6.840;2023-02-18T07:21:10;11.20;99.90
15328;DHT22;7764;51.430;6.840;2023-02-18T07:23:37;11.30;99.90
15328;DHT22;7764;51.430;6.840;2023-02-18T07:26:06;11.20;99.90
15328;DHT22;7764;51.430;6.840;2023-02-18T07:28:33;11.20;99.90
15328;DHT22;7764;51.430;6.840;2023-02-18T07:31:00;11.30;99.90
15328;DHT22;7764;51.430;6.840;2023-02-18T07:33:27;11.30;99.90
15328;DHT22;7764;51.430;6.840;2023-02-18T07:35:54;11.30;99.90
15328;DHT22;7764;51.430;6.840;2023-02-18T07:38:23;11.30;99.90
15328;DHT22;7764;51.430;6.840;2023-02-18T07:40:50;11.30;99.90
15328;DHT22;7764;51.430;6.840;2023-02-18T07:43:17;11.40;99.90
15328;DHT22;7764;51.430;6.840;2023-02-18T07:45:45;11.40;99.90
15328;DHT22;7764;51.430;6.840;2023-02-18T07:48:12;11.40;99.90
15328;DHT22;7764;51.430;6.840;2023-02-18T07:50:40;11.40;99.90
15328;DHT22;7764;51.430;6.840;2023-02-18T07:53:07;11.40;99.90
15328;DHT22;7764;51.430;6.840;2023-02-18T07:55:37;11.40;99.90
15328;DHT22;7764;51.430;6.840;2023-02-18T07:58:17;11.50;99.90
15328;DHT22;7764;51.430;6.840;2023-02-18T08:00:45;11.50;99.90
15328;DHT22;7764;51.430;6.840;2023-02-18T08:03:14;11.40;99.90
15328;DHT22;7764;51.430;6.840;2023-02-18T08:05:41;11.40;99.90
15328;DHT22;7764;51.430;6.840;2023-02-18T08:08:12;11.30;99.90
15328;DHT22;7764;51.430;6.840;2023-02-18T08:10:40;11.30;99.90
15328;DHT22;7764;51.430;6.840;2023-02-18T08:13:08;11.20;99.90
15328;DHT22;7764;51.430;6.840;2023-02-18T08:15:35;11.10;99.90
15328;DHT22;7764;51.430;6.840;2023-02-18T08:18:02;11.00;99.90
15328;DHT22;7764;51.430;6.840;2023-02-18T08:20:29;11.10;99.90
15328;DHT22;7764;51.430;6.840;2023-02-18T08:22:56;11.10;99.90
15328;DHT22;7764;51.430;6.840;2023-02-18T08:25:23;11.20;99.90
15328;DHT22;7764;51.430;6.840;2023-02-18T08:27:51;11.20;99.90
15328;DHT22;7764;51.430;6.840;2023-02-18T08:30:18;11.20;99.90
15328;DHT22;7764;51.430;6.840;2023-02-18T08:32:45;11.30;99.90
15328;DHT22;7764;51.430;6.840;2023-02-18T08:35:12;11.30;99.90
15328;DHT22;7764;51.430;6.840;2023-02-18T08:37:39;11.40;99.90
15328;DHT22;7764;51.430;6.840;2023-02-18T08:40:07;11.40;99.90
15328;DHT22;7764;51.430;6.840;2023-02-18T08:42:34;11.30;99.90
15328;DHT22;7764;51.430;6.840;2023-02-18T08:45:02;11.30;99.90
15328;DHT22;7764;51.430;6.840;2023-02-18T08:47:29;11.30;99.90
15328;DHT22;7764;51.430;6.840;2023-02-18T08:49:56;11.20;99.90
15328;DHT22;7764;51.430;6.840;2023-02-18T08:52:23;11.20;99.90
15328;DHT22;7764;51.430;6.840;2023-02-18T08:54:50;11.20;99.90
15328;DHT22;7764;51.430;6.840;2023-02-18T08:57:17;11.20;99.90
15328;DHT22;7764;51.430;6.840;2023-02-18T08:59:44;11.20;99.90
15328;DHT22;7764;51.430;6.840;2023-02-18T09:02:13;11.20;99.90
15328;DHT22;7764;51.430;6.840;2023-02-18T09:04:40;11.10;99.90
15328;DHT22;7764;51.430;6.840;2023-02-18T09:07:07;11.20;99.90
15328;DHT22;7764;51.430;6.840;2023-02-18T09:09:34;11.10;99.90
15328;DHT22;7764;51.430;6.840;2023-02-18T09:12:01;11.10;99.90
15328;DHT22;7764;51.430;6.840;2023-02-18T09:14:27;11.10;99.90
15328;DHT22;7764;51.430;6.840;2023-02-18T09:16:55;11.10;99.90
15328;DHT22;7764;51.430;6.840;2023-02-18T09:19:24;11.10;99.90
15328;DHT22;7764;51.430;6.840;2023-02-18T09:21:51;11.10;99.90
15328;DHT22;7764;51.430;6.840;2023-02-18T09:24:18;11.10;99.90
15328;DHT22;7764;51.430;6.840;2023-02-18T09:26:45;11.10;99.90
15328;DHT22;7764;51.430;6.840;2023-02-18T09:29:12;11.10;99.90
15328;DHT22;7764;51.430;6.840;2023-02-18T09:31:39;11.10;99.90
15328;DHT22;7764;51.430;6.840;2023-02-18T09:34:05;11.10;99.90
15328;DHT22;7764;51.430;6.840;2023-02-18T09:36:34;11.10;99.90
15328;DHT22;7764;51.430;6.840;2023-02-18T09:39:01;11.20;99.90
15328;DHT22;7764;51.430;6.840;2023-02-18T09:41:33;11.20;99.90
15328;DHT22;7764;51.430;6.840;2023-02-18T09:44:05;11.20;99.90
15328;DHT22;7764;51.430;6.840;2023-02-18T09:46:37;11.20;99.90
15328;DHT22;7764;51.430;6.840;2023-02-18T09:49:07;11.20;99.90
15328;DHT22;7764;51.430;6.840;2023-02-18T09:51:40;11.10;99.90
15328;DHT22;7764;51.430;6.840;2023-02-18T09:54:09;11.20;99.90
15328;DHT22;7764;51.430;6.840;2023-02-18T09:56:37;11.20;99.90
15328;DHT22;7764;51.430;6.840;2023-02-18T09:59:08;11.30;99.90
15328;DHT22;7764;51.430;6.840;2023-02-18T10:01:38;11.20;99.90
15328;DHT22;7764;51.430;6.840;2023-02-18T10:04:14;11.30;99.90
15328;DHT22;7764;51.430;6.840;2023-02-18T10:06:45;11.20;99.90
15328;DHT22;7764;51.430;6.840;2023-02-18T10:09:17;11.40;99.90
15328;DHT22;7764;51.430;6.840;2023-02-18T10:11:47;11.30;99.90
15328;DHT22;7764;51.430;6.840;2023-02-18T10:14:15;11.30;99.90
15328;DHT22;7764;51.430;6.840;2023-02-18T10:16:43;11.40;99.90
15328;DHT22;7764;51.430;6.840;2023-02-18T10:19:22;11.30;99.90
15328;DHT22;7764;51.430;6.840;2023-02-18T10:21:53;11.20;99.90
15328;DHT22;7764;51.430;6.840;2023-02-18T10:24:27;11.30;99.90
15328;DHT22;7764;51.430;6.840;2023-02-18T10:26:54;11.20;99.90
15328;DHT22;7764;51.430;6.840;2023-02-18T10:29:23;11.20;99.90
15328;DHT22;7764;51.430;6.840;2023-02-18T10:31:54;11.30;99.90
15328;DHT22;7764;51.430;6.840;2023-02-18T10:34:37;11.30;99.90
15328;DHT22;7764;51.430;6.840;2023-02-18T10:37:17;11.20;99.90
15328;DHT22;7764;51.430;6.840;2023-02-18T10:39:58;11.20;99.90
15328;DHT22;7764;51.430;6.840;2023-02-18T10:42:35;11.00;99.90
15328;DHT22;7764;51.430;6.840;2023-02-18T10:45:12;11.00;99.90
15328;DHT22;7764;51.430;6.840;2023-02-18T10:47:47;11.10;99.90
15328;DHT22;7764;51.430;6.840;2023-02-18T10:50:21;11.00;99.90
15328;DHT22;7764;51.430;6.840;2023-02-18T10:52:53;11.00;99.90
15328;DHT22;7764;51.430;6.840;2023-02-18T10:55:34;11.10;99.90
15328;DHT22;7764;51.430;6.840;2023-02-18T10:58:03;11.10;99.90
15328;DHT22;7764;51.430;6.840;2023-02-18T11:00:35;11.00;99.90
15328;DHT22;7764;51.430;6.840;2023-02-18T11:03:14;11.00;99.90
15328;DHT22;7764;51.430;6.840;2023-02-18T11:05:42;11.00;99.90
15328;DHT22;7764;51.430;6.840;2023-02-18T11:08:16;11.00;99.90
15328;DHT22;7764;51.430;6.840;2023-02-18T11:10:45;10.90;99.90
15328;DHT22;7764;51.430;6.840;2023-02-18T11:13:16;10.90;99.90
15328;DHT22;7764;51.430;6.840;2023-02-18T11:15:58;10.90;99.90
15328;DHT22;7764;51.430;6.840;2023-02-18T11:18:31;10.80;99.90
15328;DHT22;7764;51.430;6.840;2023-02-18T11:21:02;10.80;99.90
15328;DHT22;7764;51.430;6.840;2023-02-18T11:23:30;10.80;99.90
15328;DHT22;7764;51.430;6.840;2023-02-18T11:26:02;10.90;99.90
15328;DHT22;7764;51.430;6.840;2023-02-18T11:28:46;10.90;99.90
15328;DHT22;7764;51.430;6.840;2023-02-18T11:31:21;11.00;99.90
15328;DHT22;7764;51.430;6.840;2023-02-18T11:33:51;11.00;99.90
15328;DHT22;7764;51.430;6.840;2023-02-18T11:36:21;11.00;99.90
15328;DHT22;7764;51.430;6.840;2023-02-18T11:38:53;11.00;99.90
15328;DHT22;7764;51.430;6.840;2023-02-18T11:41:28;11.00;99.90
15328;DHT22;7764;51.430;6.840;2023-02-18T11:43:56;11.00;99.90
15328;DHT22;7764;51.430;6.840;2023-02-18T11:46:25;11.10;99.90
15328;DHT22;7764;51.430;6.840;2023-02-18T11:48:53;11.00;99.90
15328;DHT22;7764;51.430;6.840;2023-02-18T11:51:23;10.90;99.90
15328;DHT22;7764;51.430;6.840;2023-02-18T11:53:56;10.90;99.90
15328;DHT22;7764;51.430;6.840;2023-02-18T11:56:26;11.00;99.90
15328;DHT22;7764;51.430;6.840;2023-02-18T11:58:53;10.90;99.90
15328;DHT22;7764;51.430;6.840;2023-02-18T12:01:28;11.00;99.90
15328;DHT22;7764;51.430;6.840;2023-02-18T12:04:00;10.90;99.90
15328;DHT22;7764;51.430;6.840;2023-02-18T12:06:32;11.00;99.90
15328;DHT22;7764;51.430;6.840;2023-02-18T12:09:04;11.00;99.90
15328;DHT22;7764;51.430;6.840;2023-02-18T12:11:35;11.00;99.90
15328;DHT22;7764;51.430;6.840;2023-02-18T12:14:10;11.00;99.90
15328;DHT22;7764;51.430;6.840;2023-02-18T12:16:48;11.00;99.90
15328;DHT22;7764;51.430;6.840;2023-02-18T12:19:41;11.00;99.90
15328;DHT22;7764;51.430;6.840;2023-02-18T12:22:16;11.00;99.90
15328;DHT22;7764;51.430;6.840;2023-02-18T12:25:00;11.00;99.90
15328;DHT22;7764;51.430;6.840;2023-02-18T12:27:34;11.00;99.90
15328;DHT22;7764;51.430;6.840;2023-02-18T12:30:22;11.10;99.90
15328;DHT22;7764;51.430;6.840;2023-02-18T12:32:58;11.10;99.90
15328;DHT22;7764;51.430;6.840;2023-02-18T12:35:47;11.00;99.90
15328;DHT22;7764;51.430;6.840;2023-02-18T12:41:36;11.00;99.90
15328;DHT22;7764;51.430;6.840;2023-02-18T12:44:17;11.10;99.90
15328;DHT22;7764;51.430;6.840;2023-02-18T12:47:00;11.10;99.90
15328;DHT22;7764;51.430;6.840;2023-02-18T12:49:54;11.20;99.90
15328;DHT22;7764;51.430;6.840;2023-02-18T12:52:36;11.20;99.90
15328;DHT22;7764;51.430;6.840;2023-02-18T12:55:33;11.30;99.90
15328;DHT22;7764;51.430;6.840;2023-02-18T12:58:12;11.30;99.90
15328;DHT22;7764;51.430;6.840;2023-02-18T13:00:53;11.20;99.90
15328;DHT22;7764;51.430;6.840;2023-02-18T13:04:04;11.20;99.90
15328;DHT22;7764;51.430;6.840;2023-02-18T13:07:00;11.30;99.90
15328;DHT22;7764;51.430;6.840;2023-02-18T13:09:38;11.20;99.90
15328;DHT22;7764;51.430;6.840;2023-02-18T13:12:13;11.20;99.90
15328;DHT22;7764;51.430;6.840;2023-02-18T13:14:52;11.20;99.90
15328;DHT22;7764;51.430;6.840;2023-02-18T13:17:24;11.30;99.90
15328;DHT22;7764;51.430;6.840;2023-02-18T13:19:55;11.30;99.90
15328;DHT22;7764;51.430;6.840;2023-02-18T13:22:26;11.20;99.90
15328;DHT22;7764;51.430;6.840;2023-02-18T13:24:56;11.30;99.90
15328;DHT22;7764;51.430;6.840;2023-02-18T13:27:28;11.30;99.90
15328;DHT22;7764;51.430;6.840;2023-02-18T13:30:09;11.30;99.90
15328;DHT22;7764;51.430;6.840;2023-02-18T13:32:50;11.30;99.90
15328;DHT22;7764;51.430;6.840;2023-02-18T13:35:22;11.30;99.90
15328;DHT22;7764;51.430;6.840;2023-02-18T13:38:00;11.30;99.90
15328;DHT22;7764;51.430;6.840;2023-02-18T13:40:30;11.30;99.90
15328;DHT22;7764;51.430;6.840;2023-02-18T13:43:19;11.30;99.90
15328;DHT22;7764;51.430;6.840;2023-02-18T13:46:08;11.20;99.90
15328;DHT22;7764;51.430;6.840;2023-02-18T13:48:42;11.20;99.90
15328;DHT22;7764;51.430;6.840;2023-02-18T13:51:11;11.20;99.90
15328;DHT22;7764;51.430;6.840;2023-02-18T13:53:39;11.30;99.90
15328;DHT22;7764;51.430;6.840;2023-02-18T13:56:09;11.30;99.90
15328;DHT22;7764;51.430;6.840;2023-02-18T13:58:42;11.30;99.90
15328;DHT22;7764;51.430;6.840;2023-02-18T14:01:21;11.40;99.90
15328;DHT22;7764;51.430;6.840;2023-02-18T14:07:16;11.40;99.90
15328;DHT22;7764;51.430;6.840;2023-02-18T14:09:44;11.40;99.90
15328;DHT22;7764;51.430;6.840;2023-02-18T14:12:33;11.40;99.90
15328;DHT22;7764;51.430;6.840;2023-02-18T14:17:51;11.50;99.90
15328;DHT22;7764;51.430;6.840;2023-02-18T14:21:01;11.50;99.90
15328;DHT22;7764;51.430;6.840;2023-02-18T14:23:56;11.60;99.90
15328;DHT22;7764;51.430;6.840;2023-02-18T14:26:28;11.60;99.90
15328;DHT22;7764;51.430;6.840;2023-02-18T14:28:59;11.50;99.90
15328;DHT22;7764;51.430;6.840;2023-02-18T14:31:33;11.50;99.90
15328;DHT22;7764;51.430;6.840;2023-02-18T14:40:21;11.60;99.90
15328;DHT22;7764;51.430;6.840;2023-02-18T14:42:54;11.60;99.90
15328;DHT22;7764;51.430;6.840;2023-02-18T14:45:32;11.60;99.90
15328;DHT22;7764;51.430;6.840;2023-02-18T14:48:26;11.60;99.90
15328;DHT22;7764;51.430;6.840;2023-02-18T14:51:00;11.60;99.90
15328;DHT22;7764;51.430;6.840;2023-02-18T14:53:27;11.70;99.90
15328;DHT22;7764;51.430;6.840;2023-02-18T14:55:58;11.70;99.90
15328;DHT22;7764;51.430;6.840;2023-02-18T14:58:29;11.70;99.90
15328;DHT22;7764;51.430;6.840;2023-02-18T15:00:57;11.70;99.90
15328;DHT22;7764;51.430;6.840;2023-02-18T15:03:26;11.70;99.90
15328;DHT22;7764;51.430;6.840;2023-02-18T15:05:54;11.70;99.90
15328;DHT22;7764;51.430;6.840;2023-02-18T15:08:23;11.70;99.90
15328;DHT22;7764;51.430;6.840;2023-02-18T15:10:52;11.60;99.90
15328;DHT22;7764;51.430;6.840;2023-02-18T15:13:23;11.70;99.90
15328;DHT22;7764;51.430;6.840;2023-02-18T15:15:54;11.60;99.90
15328;DHT22;7764;51.430;6.840;2023-02-18T15:18:27;11.70;99.90
15328;DHT22;7764;51.430;6.840;2023-02-18T15:20:55;11.70;99.90
15328;DHT22;7764;51.430;6.840;2023-02-18T15:23:24;11.60;99.90
15328;DHT22;7764;51.430;6.840;2023-02-18T15:25:52;11.60;99.90
15328;DHT22;7764;51.430;6.840;2023-02-18T15:28:24;11.50;99.90
15328;DHT22;7764;51.430;6.840;2023-02-18T15:30:52;11.50;99.90
15328;DHT22;7764;51.430;6.840;2023-02-18T15:33:20;11.50;99.90
15328;DHT22;7764;51.430;6.840;2023-02-18T15:35:47;11.40;99.90
15328;DHT22;7764;51.430;6.840;2023-02-18T15:38:16;11.50;99.90
15328;DHT22;7764;51.430;6.840;2023-02-18T15:40:47;11.50;99.90
15328;DHT22;7764;51.430;6.840;2023-02-18T15:43:19;11.50;99.90
15328;DHT22;7764;51.430;6.840;2023-02-18T15:45:46;11.50;99.90
15328;DHT22;7764;51.430;6.840;2023-02-18T15:48:23;11.50;99.90
15328;DHT22;7764;51.430;6.840;2023-02-18T15:50:56;11.50;99.90
15328;DHT22;7764;51.430;6.840;2023-02-18T15:53:24;11.50;99.90
15328;DHT22;7764;51.430;6.840;2023-02-18T15:55:53;11.50;99.90
15328;DHT22;7764;51.430;6.840;2023-02-18T15:58:23;11.50;99.90
15328;DHT22;7764;51.430;6.840;2023-02-18T16:00:54;11.50;99.90
15328;DHT22;7764;51.430;6.840;2023-02-18T16:03:23;11.50;99.90
15328;DHT22;7764;51.430;6.840;2023-02-18T16:06:07;11.50;99.90
15328;DHT22;7764;51.430;6.840;2023-02-18T16:08:35;11.50;99.90
15328;DHT22;7764;51.430;6.840;2023-02-18T16:11:05;11.60;99.90
15328;DHT22;7764;51.430;6.840;2023-02-18T16:13:35;11.50;99.90
15328;DHT22;7764;51.430;6.840;2023-02-18T16:16:02;11.60;99.90
15328;DHT22;7764;51.430;6.840;2023-02-18T16:18:35;11.60;99.90
15328;DHT22;7764;51.430;6.840;2023-02-18T16:21:05;11.50;99.90
15328;DHT22;7764;51.430;6.840;2023-02-18T16:23:39;11.50;99.90
15328;DHT22;7764;51.430;6.840;2023-02-18T16:26:22;11.50;99.90